sensor_id;sensor_type;location;lat;lon;timestamp;P1;durP1;ratioP1;P2;durP2;ratioP2
62798;SDS011;48842;51.046;13.796;2023-03-23T00:01:15;3.20;;;2.60;;
62798;SDS011;48842;51.046;13.796;2023-03-23T00:03:47;6.93;;;3.00;;
62798;SDS011;48842;51.046;13.796;2023-03-23T00:06:14;3.17;;;2.40;;
62798;SDS011;48842;51.046;13.796;2023-03-23T00:08:44;2.40;;;2.20;;
62798;SDS011;48842;51.046;13.796;2023-03-23T00:11:15;2.27;;;2.17;;
62798;SDS011;48842;51.046;13.796;2023-03-23T00:13:43;3.00;;;2.20;;
62798;SDS011;48842;51.046;13.796;2023-03-23T00:16:10;3.73;;;1.80;;
62798;SDS011;48842;51.046;13.796;2023-03-23T00:18:49;3.40;;;2.00;;
62798;SDS011;48842;51.046;13.796;2023-03-23T00:21:22;2.40;;;1.90;;
62798;SDS011;48842;51.046;13.796;2023-03-23T00:23:57;1.77;;;1.67;;
62798;SDS011;48842;51.046;13.796;2023-03-23T00:26:24;1.60;;;1.50;;
62798;SDS011;48842;51.046;13.796;2023-03-23T00:28:53;2.10;;;1.90;;
62798;SDS011;48842;51.046;13.796;2023-03-23T00:31:18;1.80;;;1.27;;
62798;SDS011;48842;51.046;13.796;2023-03-23T00:33:44;3.20;;;1.27;;
62798;SDS011;48842;51.046;13.796;2023-03-23T00:36:12;2.60;;;1.67;;
62798;SDS011;48842;51.046;13.796;2023-03-23T00:38:38;1.60;;;1.50;;
62798;SDS011;48842;51.046;13.796;2023-03-23T00:41:05;1.97;;;1.80;;
62798;SDS011;48842;51.046;13.796;2023-03-23T00:43:31;2.67;;;1.97;;
62798;SDS011;48842;51.046;13.796;2023-03-23T00:46:00;3.73;;;1.70;;
62798;SDS011;48842;51.046;13.796;2023-03-23T00:48:26;1.90;;;1.50;;
62798;SDS011;48842;51.046;13.796;2023-03-23T00:50:52;2.13;;;1.60;;
62798;SDS011;48842;51.046;13.796;2023-03-23T00:53:17;1.43;;;1.20;;
62798;SDS011;48842;51.046;13.796;2023-03-23T00:55:44;2.30;;;2.10;;
62798;SDS011;48842;51.046;13.796;2023-03-23T00:58:11;1.93;;;1.10;;
62798;SDS011;48842;51.046;13.796;2023-03-23T01:00:37;2.40;;;1.50;;
62798;SDS011;48842;51.046;13.796;2023-03-23T01:03:03;2.93;;;1.93;;
62798;SDS011;48842;51.046;13.796;2023-03-23T01:05:29;1.70;;;1.37;;
62798;SDS011;48842;51.046;13.796;2023-03-23T01:07:58;1.50;;;1.40;;
62798;SDS011;48842;51.046;13.796;2023-03-23T01:10:23;2.10;;;1.90;;
62798;SDS011;48842;51.046;13.796;2023-03-23T01:12:49;1.30;;;1.20;;
62798;SDS011;48842;51.046;13.796;2023-03-23T01:15:16;1.43;;;1.37;;
62798;SDS011;48842;51.046;13.796;2023-03-23T01:17:42;5.63;;;1.53;;
62798;SDS011;48842;51.046;13.796;2023-03-23T01:20:08;1.83;;;1.20;;
62798;SDS011;48842;51.046;13.796;2023-03-23T01:22:35;2.03;;;1.00;;
62798;SDS011;48842;51.046;13.796;2023-03-23T01:25:00;1.93;;;1.60;;
62798;SDS011;48842;51.046;13.796;2023-03-23T01:27:25;4.50;;;1.57;;
62798;SDS011;48842;51.046;13.796;2023-03-23T01:29:51;2.10;;;1.17;;
62798;SDS011;48842;51.046;13.796;2023-03-23T01:32:16;1.40;;;1.20;;
62798;SDS011;48842;51.046;13.796;2023-03-23T01:34:41;2.67;;;1.40;;
62798;SDS011;48842;51.046;13.796;2023-03-23T01:37:07;1.77;;;1.37;;
62798;SDS011;48842;51.046;13.796;2023-03-23T01:39:32;1.27;;;1.17;;
62798;SDS011;48842;51.046;13.796;2023-03-23T01:41:57;1.50;;;1.20;;
62798;SDS011;48842;51.046;13.796;2023-03-23T01:46:47;2.20;;;1.10;;
62798;SDS011;48842;51.046;13.796;2023-03-23T01:49:14;1.77;;;1.07;;
62798;SDS011;48842;51.046;13.796;2023-03-23T01:51:43;3.60;;;1.50;;
62798;SDS011;48842;51.046;13.796;2023-03-23T01:54:13;1.00;;;1.00;;
62798;SDS011;48842;51.046;13.796;2023-03-23T01:57:01;1.10;;;1.00;;
62798;SDS011;48842;51.046;13.796;2023-03-23T01:59:28;2.37;;;1.30;;
62798;SDS011;48842;51.046;13.796;2023-03-23T02:01:56;1.73;;;1.40;;
62798;SDS011;48842;51.046;13.796;2023-03-23T02:04:21;1.30;;;1.20;;
62798;SDS011;48842;51.046;13.796;2023-03-23T02:06:49;2.10;;;1.10;;
62798;SDS011;48842;51.046;13.796;2023-03-23T02:09:16;0.80;;;0.80;;
62798;SDS011;48842;51.046;13.796;2023-03-23T02:11:43;1.20;;;1.10;;
62798;SDS011;48842;51.046;13.796;2023-03-23T02:14:09;1.20;;;1.20;;
62798;SDS011;48842;51.046;13.796;2023-03-23T02:16:40;1.00;;;1.00;;
62798;SDS011;48842;51.046;13.796;2023-03-23T02:21:59;1.43;;;1.07;;
62798;SDS011;48842;51.046;13.796;2023-03-23T02:30:51;1.07;;;0.97;;
62798;SDS011;48842;51.046;13.796;2023-03-23T02:33:30;2.13;;;1.10;;
62798;SDS011;48842;51.046;13.796;2023-03-23T02:36:04;1.30;;;1.20;;
62798;SDS011;48842;51.046;13.796;2023-03-23T02:38:38;0.80;;;0.80;;
62798;SDS011;48842;51.046;13.796;2023-03-23T02:41:10;2.80;;;1.10;;
62798;SDS011;48842;51.046;13.796;2023-03-23T02:43:39;1.00;;;1.00;;
62798;SDS011;48842;51.046;13.796;2023-03-23T02:46:07;1.20;;;1.00;;
62798;SDS011;48842;51.046;13.796;2023-03-23T02:48:35;1.17;;;1.00;;
62798;SDS011;48842;51.046;13.796;2023-03-23T02:51:01;0.90;;;0.90;;
62798;SDS011;48842;51.046;13.796;2023-03-23T02:53:28;1.13;;;1.03;;
62798;SDS011;48842;51.046;13.796;2023-03-23T02:55:55;1.00;;;1.00;;
62798;SDS011;48842;51.046;13.796;2023-03-23T02:58:22;1.70;;;1.00;;
62798;SDS011;48842;51.046;13.796;2023-03-23T03:00:48;0.87;;;0.83;;
62798;SDS011;48842;51.046;13.796;2023-03-23T03:03:16;2.30;;;1.20;;
62798;SDS011;48842;51.046;13.796;2023-03-23T03:05:54;1.87;;;1.07;;
62798;SDS011;48842;51.046;13.796;2023-03-23T03:11:14;1.73;;;1.00;;
62798;SDS011;48842;51.046;13.796;2023-03-23T03:13:52;1.43;;;1.10;;
62798;SDS011;48842;51.046;13.796;2023-03-23T03:19:09;1.53;;;0.60;;
62798;SDS011;48842;51.046;13.796;2023-03-23T03:21:38;1.43;;;0.93;;
62798;SDS011;48842;51.046;13.796;2023-03-23T03:24:07;1.23;;;0.77;;
62798;SDS011;48842;51.046;13.796;2023-03-23T03:26:36;1.93;;;0.70;;
62798;SDS011;48842;51.046;13.796;2023-03-23T03:29:04;0.90;;;0.80;;
62798;SDS011;48842;51.046;13.796;2023-03-23T03:31:33;0.87;;;0.87;;
62798;SDS011;48842;51.046;13.796;2023-03-23T03:34:10;1.40;;;0.90;;
62798;SDS011;48842;51.046;13.796;2023-03-23T03:36:36;2.10;;;0.90;;
62798;SDS011;48842;51.046;13.796;2023-03-23T03:39:06;2.33;;;1.10;;
62798;SDS011;48842;51.046;13.796;2023-03-23T03:41:34;1.13;;;1.13;;
62798;SDS011;48842;51.046;13.796;2023-03-23T03:44:01;1.50;;;1.10;;
62798;SDS011;48842;51.046;13.796;2023-03-23T03:46:27;1.17;;;1.00;;
62798;SDS011;48842;51.046;13.796;2023-03-23T03:48:54;2.23;;;1.30;;
62798;SDS011;48842;51.046;13.796;2023-03-23T03:51:21;1.20;;;0.90;;
62798;SDS011;48842;51.046;13.796;2023-03-23T03:53:47;2.23;;;1.60;;
62798;SDS011;48842;51.046;13.796;2023-03-23T03:56:12;3.00;;;2.03;;
62798;SDS011;48842;51.046;13.796;2023-03-23T03:58:38;1.60;;;1.50;;
62798;SDS011;48842;51.046;13.796;2023-03-23T04:01:04;2.57;;;1.30;;
62798;SDS011;48842;51.046;13.796;2023-03-23T04:03:29;1.50;;;1.40;;
62798;SDS011;48842;51.046;13.796;2023-03-23T04:05:55;2.00;;;1.90;;
62798;SDS011;48842;51.046;13.796;2023-03-23T04:08:23;1.97;;;1.60;;
62798;SDS011;48842;51.046;13.796;2023-03-23T04:10:49;1.87;;;1.60;;
62798;SDS011;48842;51.046;13.796;2023-03-23T04:13:15;3.17;;;1.50;;
62798;SDS011;48842;51.046;13.796;2023-03-23T04:15:41;3.70;;;1.47;;
62798;SDS011;48842;51.046;13.796;2023-03-23T04:18:06;3.53;;;2.17;;
62798;SDS011;48842;51.046;13.796;2023-03-23T04:20:31;2.00;;;1.83;;
62798;SDS011;48842;51.046;13.796;2023-03-23T04:22:57;4.57;;;1.80;;
62798;SDS011;48842;51.046;13.796;2023-03-23T04:25:22;2.10;;;1.90;;
62798;SDS011;48842;51.046;13.796;2023-03-23T04:27:49;1.60;;;1.50;;
62798;SDS011;48842;51.046;13.796;2023-03-23T04:30:21;2.43;;;1.83;;
62798;SDS011;48842;51.046;13.796;2023-03-23T04:32:49;3.90;;;1.70;;
62798;SDS011;48842;51.046;13.796;2023-03-23T04:35:17;6.10;;;1.80;;
62798;SDS011;48842;51.046;13.796;2023-03-23T04:37:43;1.93;;;1.73;;
62798;SDS011;48842;51.046;13.796;2023-03-23T04:40:09;1.77;;;1.67;;
62798;SDS011;48842;51.046;13.796;2023-03-23T04:42:40;2.23;;;2.13;;
62798;SDS011;48842;51.046;13.796;2023-03-23T04:45:10;2.33;;;1.90;;
62798;SDS011;48842;51.046;13.796;2023-03-23T04:47:36;2.23;;;2.03;;
62798;SDS011;48842;51.046;13.796;2023-03-23T04:50:05;5.00;;;2.23;;
62798;SDS011;48842;51.046;13.796;2023-03-23T04:52:35;2.77;;;2.07;;
62798;SDS011;48842;51.046;13.796;2023-03-23T04:55:03;3.03;;;2.17;;
62798;SDS011;48842;51.046;13.796;2023-03-23T04:57:32;3.53;;;3.17;;
62798;SDS011;48842;51.046;13.796;2023-03-23T04:59:59;6.80;;;5.13;;
62798;SDS011;48842;51.046;13.796;2023-03-23T05:02:25;5.53;;;4.93;;
62798;SDS011;48842;51.046;13.796;2023-03-23T05:04:54;3.90;;;3.47;;
62798;SDS011;48842;51.046;13.796;2023-03-23T05:07:20;4.77;;;3.43;;
62798;SDS011;48842;51.046;13.796;2023-03-23T05:09:48;4.17;;;3.67;;
62798;SDS011;48842;51.046;13.796;2023-03-23T05:12:14;4.20;;;3.80;;
62798;SDS011;48842;51.046;13.796;2023-03-23T05:14:40;7.33;;;2.80;;
62798;SDS011;48842;51.046;13.796;2023-03-23T05:17:06;3.53;;;2.23;;
62798;SDS011;48842;51.046;13.796;2023-03-23T05:19:32;2.60;;;2.23;;
62798;SDS011;48842;51.046;13.796;2023-03-23T05:21:58;5.57;;;2.07;;
62798;SDS011;48842;51.046;13.796;2023-03-23T05:24:28;10.53;;;1.90;;
62798;SDS011;48842;51.046;13.796;2023-03-23T05:26:56;6.60;;;2.70;;
62798;SDS011;48842;51.046;13.796;2023-03-23T05:29:21;2.10;;;1.70;;
62798;SDS011;48842;51.046;13.796;2023-03-23T05:31:49;4.00;;;2.20;;
62798;SDS011;48842;51.046;13.796;2023-03-23T05:34:14;5.27;;;2.20;;
62798;SDS011;48842;51.046;13.796;2023-03-23T05:36:40;2.87;;;2.10;;
62798;SDS011;48842;51.046;13.796;2023-03-23T05:39:08;4.70;;;2.90;;
62798;SDS011;48842;51.046;13.796;2023-03-23T05:41:34;4.17;;;2.57;;
62798;SDS011;48842;51.046;13.796;2023-03-23T05:44:00;2.93;;;2.40;;
62798;SDS011;48842;51.046;13.796;2023-03-23T05:46:25;4.03;;;3.03;;
62798;SDS011;48842;51.046;13.796;2023-03-23T05:48:51;2.63;;;2.27;;
62798;SDS011;48842;51.046;13.796;2023-03-23T05:51:18;5.87;;;2.23;;
62798;SDS011;48842;51.046;13.796;2023-03-23T05:53:43;4.00;;;2.30;;
62798;SDS011;48842;51.046;13.796;2023-03-23T05:56:09;2.63;;;2.07;;
62798;SDS011;48842;51.046;13.796;2023-03-23T05:58:34;8.83;;;2.50;;
62798;SDS011;48842;51.046;13.796;2023-03-23T06:00:59;3.50;;;2.10;;
62798;SDS011;48842;51.046;13.796;2023-03-23T06:03:24;5.53;;;1.90;;
62798;SDS011;48842;51.046;13.796;2023-03-23T06:05:50;4.07;;;2.00;;
62798;SDS011;48842;51.046;13.796;2023-03-23T06:08:15;6.43;;;2.00;;
62798;SDS011;48842;51.046;13.796;2023-03-23T06:10:40;9.70;;;2.20;;
62798;SDS011;48842;51.046;13.796;2023-03-23T06:13:06;6.80;;;2.27;;
62798;SDS011;48842;51.046;13.796;2023-03-23T06:15:31;4.03;;;2.37;;
62798;SDS011;48842;51.046;13.796;2023-03-23T06:17:58;5.43;;;2.37;;
62798;SDS011;48842;51.046;13.796;2023-03-23T06:20:24;4.27;;;2.60;;
62798;SDS011;48842;51.046;13.796;2023-03-23T06:22:49;2.37;;;2.27;;
62798;SDS011;48842;51.046;13.796;2023-03-23T06:25:16;2.53;;;2.33;;
62798;SDS011;48842;51.046;13.796;2023-03-23T06:27:41;2.93;;;2.10;;
62798;SDS011;48842;51.046;13.796;2023-03-23T06:30:06;6.47;;;1.90;;
62798;SDS011;48842;51.046;13.796;2023-03-23T06:32:32;2.00;;;1.90;;
62798;SDS011;48842;51.046;13.796;2023-03-23T06:35:12;7.60;;;2.20;;
62798;SDS011;48842;51.046;13.796;2023-03-23T06:37:38;3.73;;;2.47;;
62798;SDS011;48842;51.046;13.796;2023-03-23T06:40:04;2.50;;;2.30;;
62798;SDS011;48842;51.046;13.796;2023-03-23T06:42:33;10.43;;;1.83;;
62798;SDS011;48842;51.046;13.796;2023-03-23T06:44:59;4.40;;;2.60;;
62798;SDS011;48842;51.046;13.796;2023-03-23T06:47:25;2.90;;;1.73;;
62798;SDS011;48842;51.046;13.796;2023-03-23T06:49:52;1.70;;;1.60;;
62798;SDS011;48842;51.046;13.796;2023-03-23T06:52:17;4.23;;;1.70;;
62798;SDS011;48842;51.046;13.796;2023-03-23T06:54:43;8.53;;;1.60;;
62798;SDS011;48842;51.046;13.796;2023-03-23T06:57:08;1.63;;;1.53;;
62798;SDS011;48842;51.046;13.796;2023-03-23T06:59:34;4.27;;;1.47;;
62798;SDS011;48842;51.046;13.796;2023-03-23T07:01:59;1.50;;;1.40;;
62798;SDS011;48842;51.046;13.796;2023-03-23T07:04:25;2.40;;;1.60;;
62798;SDS011;48842;51.046;13.796;2023-03-23T07:06:50;2.70;;;1.40;;
62798;SDS011;48842;51.046;13.796;2023-03-23T07:09:15;3.33;;;0.93;;
62798;SDS011;48842;51.046;13.796;2023-03-23T07:11:41;1.17;;;1.00;;
62798;SDS011;48842;51.046;13.796;2023-03-23T07:14:07;1.80;;;1.07;;
62798;SDS011;48842;51.046;13.796;2023-03-23T07:16:32;9.23;;;1.27;;
62798;SDS011;48842;51.046;13.796;2023-03-23T07:18:58;4.97;;;2.10;;
62798;SDS011;48842;51.046;13.796;2023-03-23T07:21:24;1.53;;;0.93;;
62798;SDS011;48842;51.046;13.796;2023-03-23T07:23:49;3.43;;;1.30;;
62798;SDS011;48842;51.046;13.796;2023-03-23T07:26:15;1.90;;;1.53;;
62798;SDS011;48842;51.046;13.796;2023-03-23T07:28:40;2.40;;;1.00;;
62798;SDS011;48842;51.046;13.796;2023-03-23T07:31:06;4.40;;;1.30;;
62798;SDS011;48842;51.046;13.796;2023-03-23T07:33:33;1.77;;;1.10;;
62798;SDS011;48842;51.046;13.796;2023-03-23T07:35:59;2.03;;;1.07;;
62798;SDS011;48842;51.046;13.796;2023-03-23T07:38:26;1.70;;;1.30;;
62798;SDS011;48842;51.046;13.796;2023-03-23T07:40:52;1.20;;;1.13;;
62798;SDS011;48842;51.046;13.796;2023-03-23T07:43:18;2.50;;;1.30;;
62798;SDS011;48842;51.046;13.796;2023-03-23T07:45:44;3.43;;;1.20;;
62798;SDS011;48842;51.046;13.796;2023-03-23T07:48:10;1.60;;;1.50;;
62798;SDS011;48842;51.046;13.796;2023-03-23T07:50:35;2.20;;;1.10;;
62798;SDS011;48842;51.046;13.796;2023-03-23T07:53:02;5.20;;;1.00;;
62798;SDS011;48842;51.046;13.796;2023-03-23T07:55:27;1.60;;;1.50;;
62798;SDS011;48842;51.046;13.796;2023-03-23T07:57:53;1.33;;;1.13;;
62798;SDS011;48842;51.046;13.796;2023-03-23T08:00:19;1.80;;;1.33;;
62798;SDS011;48842;51.046;13.796;2023-03-23T08:02:46;1.83;;;1.10;;
62798;SDS011;48842;51.046;13.796;2023-03-23T08:05:13;1.50;;;1.40;;
62798;SDS011;48842;51.046;13.796;2023-03-23T08:07:39;1.27;;;1.10;;
62798;SDS011;48842;51.046;13.796;2023-03-23T08:10:05;6.40;;;1.13;;
62798;SDS011;48842;51.046;13.796;2023-03-23T08:12:35;2.20;;;1.00;;
62798;SDS011;48842;51.046;13.796;2023-03-23T08:15:00;6.57;;;1.30;;
62798;SDS011;48842;51.046;13.796;2023-03-23T08:17:26;1.20;;;1.07;;
62798;SDS011;48842;51.046;13.796;2023-03-23T08:19:51;1.87;;;1.40;;
62798;SDS011;48842;51.046;13.796;2023-03-23T08:22:17;1.30;;;1.20;;
62798;SDS011;48842;51.046;13.796;2023-03-23T08:24:42;1.20;;;0.83;;
62798;SDS011;48842;51.046;13.796;2023-03-23T08:27:08;1.27;;;1.07;;
62798;SDS011;48842;51.046;13.796;2023-03-23T08:29:34;3.67;;;1.33;;
62798;SDS011;48842;51.046;13.796;2023-03-23T08:31:59;0.90;;;0.90;;
62798;SDS011;48842;51.046;13.796;2023-03-23T08:34:27;2.43;;;1.20;;
62798;SDS011;48842;51.046;13.796;2023-03-23T08:36:53;1.43;;;1.33;;
62798;SDS011;48842;51.046;13.796;2023-03-23T08:39:20;0.93;;;0.93;;
62798;SDS011;48842;51.046;13.796;2023-03-23T08:41:47;1.20;;;1.10;;
62798;SDS011;48842;51.046;13.796;2023-03-23T08:44:13;1.40;;;1.30;;
62798;SDS011;48842;51.046;13.796;2023-03-23T08:46:38;1.03;;;1.03;;
62798;SDS011;48842;51.046;13.796;2023-03-23T08:49:04;2.60;;;1.30;;
62798;SDS011;48842;51.046;13.796;2023-03-23T08:51:30;1.43;;;1.30;;
62798;SDS011;48842;51.046;13.796;2023-03-23T08:53:56;1.53;;;1.43;;
62798;SDS011;48842;51.046;13.796;2023-03-23T08:56:21;3.80;;;1.40;;
62798;SDS011;48842;51.046;13.796;2023-03-23T08:58:47;3.13;;;1.20;;
62798;SDS011;48842;51.046;13.796;2023-03-23T09:01:12;1.20;;;1.10;;
62798;SDS011;48842;51.046;13.796;2023-03-23T09:03:38;2.20;;;1.17;;
62798;SDS011;48842;51.046;13.796;2023-03-23T09:06:05;1.30;;;1.20;;
62798;SDS011;48842;51.046;13.796;2023-03-23T09:08:32;4.73;;;1.40;;
62798;SDS011;48842;51.046;13.796;2023-03-23T09:11:01;3.80;;;1.70;;
62798;SDS011;48842;51.046;13.796;2023-03-23T09:13:28;3.00;;;1.50;;
62798;SDS011;48842;51.046;13.796;2023-03-23T09:15:53;1.63;;;1.53;;
62798;SDS011;48842;51.046;13.796;2023-03-23T09:18:19;3.27;;;3.07;;
62798;SDS011;48842;51.046;13.796;2023-03-23T09:20:45;4.27;;;3.50;;
62798;SDS011;48842;51.046;13.796;2023-03-23T09:23:10;2.40;;;2.20;;
62798;SDS011;48842;51.046;13.796;2023-03-23T09:25:37;2.60;;;2.37;;
62798;SDS011;48842;51.046;13.796;2023-03-23T09:28:03;6.10;;;1.77;;
62798;SDS011;48842;51.046;13.796;2023-03-23T09:30:30;2.60;;;1.60;;
62798;SDS011;48842;51.046;13.796;2023-03-23T09:32:57;11.13;;;3.30;;
62798;SDS011;48842;51.046;13.796;2023-03-23T09:35:26;6.50;;;2.23;;
62798;SDS011;48842;51.046;13.796;2023-03-23T09:37:52;2.53;;;1.90;;
62798;SDS011;48842;51.046;13.796;2023-03-23T09:40:19;13.93;;;8.63;;
62798;SDS011;48842;51.046;13.796;2023-03-23T09:42:48;5.43;;;3.90;;
62798;SDS011;48842;51.046;13.796;2023-03-23T09:45:37;7.40;;;5.43;;
62798;SDS011;48842;51.046;13.796;2023-03-23T09:48:23;2.93;;;2.73;;
62798;SDS011;48842;51.046;13.796;2023-03-23T09:51:08;1.83;;;1.70;;
62798;SDS011;48842;51.046;13.796;2023-03-23T09:53:45;1.30;;;1.20;;
62798;SDS011;48842;51.046;13.796;2023-03-23T09:56:15;2.23;;;1.50;;
62798;SDS011;48842;51.046;13.796;2023-03-23T09:58:45;1.70;;;1.60;;
62798;SDS011;48842;51.046;13.796;2023-03-23T10:01:32;1.97;;;1.77;;
62798;SDS011;48842;51.046;13.796;2023-03-23T10:04:11;3.00;;;2.70;;
62798;SDS011;48842;51.046;13.796;2023-03-23T10:06:45;2.20;;;1.90;;
62798;SDS011;48842;51.046;13.796;2023-03-23T10:09:13;1.47;;;1.40;;
62798;SDS011;48842;51.046;13.796;2023-03-23T10:11:44;2.00;;;1.67;;
62798;SDS011;48842;51.046;13.796;2023-03-23T10:14:43;3.07;;;1.30;;
62798;SDS011;48842;51.046;13.796;2023-03-23T10:17:20;1.43;;;1.20;;
62798;SDS011;48842;51.046;13.796;2023-03-23T10:19:52;2.80;;;1.90;;
62798;SDS011;48842;51.046;13.796;2023-03-23T10:22:27;2.47;;;1.37;;
62798;SDS011;48842;51.046;13.796;2023-03-23T10:24:59;4.53;;;2.07;;
62798;SDS011;48842;51.046;13.796;2023-03-23T10:27:47;4.13;;;1.50;;
62798;SDS011;48842;51.046;13.796;2023-03-23T10:30:19;8.03;;;1.90;;
62798;SDS011;48842;51.046;13.796;2023-03-23T10:32:51;1.50;;;1.40;;
62798;SDS011;48842;51.046;13.796;2023-03-23T10:38:33;1.50;;;1.40;;
62798;SDS011;48842;51.046;13.796;2023-03-23T10:41:12;1.53;;;1.43;;
62798;SDS011;48842;51.046;13.796;2023-03-23T10:43:39;2.00;;;1.13;;
62798;SDS011;48842;51.046;13.796;2023-03-23T10:46:12;1.50;;;1.33;;
62798;SDS011;48842;51.046;13.796;2023-03-23T10:48:58;1.70;;;1.60;;
62798;SDS011;48842;51.046;13.796;2023-03-23T10:51:36;1.17;;;0.90;;
62798;SDS011;48842;51.046;13.796;2023-03-23T10:54:04;1.20;;;1.10;;
62798;SDS011;48842;51.046;13.796;2023-03-23T10:56:36;1.83;;;1.67;;
62798;SDS011;48842;51.046;13.796;2023-03-23T10:59:13;1.53;;;1.43;;
62798;SDS011;48842;51.046;13.796;2023-03-23T11:01:42;1.67;;;1.10;;
62798;SDS011;48842;51.046;13.796;2023-03-23T11:04:11;2.20;;;1.30;;
62798;SDS011;48842;51.046;13.796;2023-03-23T11:06:37;1.70;;;1.60;;
62798;SDS011;48842;51.046;13.796;2023-03-23T11:09:10;1.47;;;1.20;;
62798;SDS011;48842;51.046;13.796;2023-03-23T11:11:43;6.87;;;1.53;;
62798;SDS011;48842;51.046;13.796;2023-03-23T11:14:26;1.33;;;1.20;;
62798;SDS011;48842;51.046;13.796;2023-03-23T11:16:57;1.20;;;1.10;;
62798;SDS011;48842;51.046;13.796;2023-03-23T11:19:29;1.17;;;1.13;;
62798;SDS011;48842;51.046;13.796;2023-03-23T11:22:06;2.00;;;1.30;;
62798;SDS011;48842;51.046;13.796;2023-03-23T11:24:35;5.23;;;1.47;;
62798;SDS011;48842;51.046;13.796;2023-03-23T11:27:05;1.90;;;0.90;;
62798;SDS011;48842;51.046;13.796;2023-03-23T11:29:33;2.13;;;1.20;;
62798;SDS011;48842;51.046;13.796;2023-03-23T11:34:35;1.23;;;1.10;;
62798;SDS011;48842;51.046;13.796;2023-03-23T11:37:28;3.87;;;1.17;;
62798;SDS011;48842;51.046;13.796;2023-03-23T11:39:59;1.53;;;1.30;;
62798;SDS011;48842;51.046;13.796;2023-03-23T11:42:25;1.20;;;1.10;;
62798;SDS011;48842;51.046;13.796;2023-03-23T11:45:13;1.33;;;1.07;;
62798;SDS011;48842;51.046;13.796;2023-03-23T11:48:01;1.40;;;1.30;;
62798;SDS011;48842;51.046;13.796;2023-03-23T11:50:50;1.23;;;0.90;;
62798;SDS011;48842;51.046;13.796;2023-03-23T11:53:32;1.17;;;1.07;;
62798;SDS011;48842;51.046;13.796;2023-03-23T11:58:50;2.20;;;1.40;;
62798;SDS011;48842;51.046;13.796;2023-03-23T12:01:32;1.70;;;1.33;;
62798;SDS011;48842;51.046;13.796;2023-03-23T12:12:53;1.37;;;1.30;;
62798;SDS011;48842;51.046;13.796;2023-03-23T12:18:37;3.23;;;1.57;;
62798;SDS011;48842;51.046;13.796;2023-03-23T12:21:28;1.40;;;1.30;;
62798;SDS011;48842;51.046;13.796;2023-03-23T12:27:20;1.43;;;1.20;;
62798;SDS011;48842;51.046;13.796;2023-03-23T12:30:11;1.83;;;1.30;;
62798;SDS011;48842;51.046;13.796;2023-03-23T12:35:25;1.60;;;1.27;;
62798;SDS011;48842;51.046;13.796;2023-03-23T12:37:57;2.13;;;1.30;;
62798;SDS011;48842;51.046;13.796;2023-03-23T12:43:08;1.67;;;1.50;;
62798;SDS011;48842;51.046;13.796;2023-03-23T12:48:20;1.37;;;1.10;;
62798;SDS011;48842;51.046;13.796;2023-03-23T12:51:01;1.63;;;0.80;;
62798;SDS011;48842;51.046;13.796;2023-03-23T12:53:45;0.70;;;0.70;;
62798;SDS011;48842;51.046;13.796;2023-03-23T12:56:24;1.50;;;1.27;;
62798;SDS011;48842;51.046;13.796;2023-03-23T12:59:02;1.07;;;0.97;;
62798;SDS011;48842;51.046;13.796;2023-03-23T13:01:42;5.50;;;1.23;;
62798;SDS011;48842;51.046;13.796;2023-03-23T13:04:18;1.23;;;1.10;;
62798;SDS011;48842;51.046;13.796;2023-03-23T13:06:47;2.37;;;1.13;;
62798;SDS011;48842;51.046;13.796;2023-03-23T13:12:01;1.83;;;1.20;;
62798;SDS011;48842;51.046;13.796;2023-03-23T13:14:33;1.97;;;1.23;;
62798;SDS011;48842;51.046;13.796;2023-03-23T13:22:42;5.77;;;2.00;;
62798;SDS011;48842;51.046;13.796;2023-03-23T13:25:18;1.20;;;1.20;;
62798;SDS011;48842;51.046;13.796;2023-03-23T13:28:01;3.87;;;1.60;;
62798;SDS011;48842;51.046;13.796;2023-03-23T13:30:27;1.10;;;1.10;;
62798;SDS011;48842;51.046;13.796;2023-03-23T13:33:01;6.93;;;1.77;;
62798;SDS011;48842;51.046;13.796;2023-03-23T13:35:34;1.60;;;1.50;;
62798;SDS011;48842;51.046;13.796;2023-03-23T13:38:10;1.50;;;1.40;;
62798;SDS011;48842;51.046;13.796;2023-03-23T13:40:49;1.53;;;1.40;;
62798;SDS011;48842;51.046;13.796;2023-03-23T13:43:24;2.43;;;1.07;;
62798;SDS011;48842;51.046;13.796;2023-03-23T13:46:08;1.03;;;1.03;;
62798;SDS011;48842;51.046;13.796;2023-03-23T13:48:41;1.73;;;1.20;;
62798;SDS011;48842;51.046;13.796;2023-03-23T13:54:12;1.30;;;1.20;;
62798;SDS011;48842;51.046;13.796;2023-03-23T13:56:40;1.53;;;1.20;;
62798;SDS011;48842;51.046;13.796;2023-03-23T14:01:50;1.57;;;1.07;;
62798;SDS011;48842;51.046;13.796;2023-03-23T14:04:16;2.70;;;1.50;;
62798;SDS011;48842;51.046;13.796;2023-03-23T14:06:44;1.20;;;1.07;;
62798;SDS011;48842;51.046;13.796;2023-03-23T14:11:57;3.13;;;1.07;;
62798;SDS011;48842;51.046;13.796;2023-03-23T14:14:31;2.90;;;1.30;;
62798;SDS011;48842;51.046;13.796;2023-03-23T14:17:11;4.20;;;1.37;;
62798;SDS011;48842;51.046;13.796;2023-03-23T14:19:39;2.13;;;1.20;;
62798;SDS011;48842;51.046;13.796;2023-03-23T14:22:16;2.70;;;1.00;;
62798;SDS011;48842;51.046;13.796;2023-03-23T14:24:48;1.70;;;1.60;;
62798;SDS011;48842;51.046;13.796;2023-03-23T14:27:16;6.00;;;1.10;;
62798;SDS011;48842;51.046;13.796;2023-03-23T14:29:56;1.83;;;1.60;;
62798;SDS011;48842;51.046;13.796;2023-03-23T14:32:23;1.13;;;1.03;;
62798;SDS011;48842;51.046;13.796;2023-03-23T14:34:51;1.10;;;1.00;;
62798;SDS011;48842;51.046;13.796;2023-03-23T14:37:17;1.00;;;0.80;;
62798;SDS011;48842;51.046;13.796;2023-03-23T14:39:46;0.83;;;0.83;;
62798;SDS011;48842;51.046;13.796;2023-03-23T14:42:14;1.00;;;0.90;;
62798;SDS011;48842;51.046;13.796;2023-03-23T14:44:44;4.17;;;1.03;;
62798;SDS011;48842;51.046;13.796;2023-03-23T14:47:16;2.93;;;1.00;;
62798;SDS011;48842;51.046;13.796;2023-03-23T14:49:55;1.27;;;1.03;;
62798;SDS011;48842;51.046;13.796;2023-03-23T14:52:24;1.50;;;1.40;;
62798;SDS011;48842;51.046;13.796;2023-03-23T14:54:52;1.73;;;1.47;;
62798;SDS011;48842;51.046;13.796;2023-03-23T14:57:18;2.10;;;1.80;;
62798;SDS011;48842;51.046;13.796;2023-03-23T14:59:50;2.60;;;1.70;;
62798;SDS011;48842;51.046;13.796;2023-03-23T15:04:50;1.40;;;1.30;;
62798;SDS011;48842;51.046;13.796;2023-03-23T15:07:19;3.73;;;1.07;;
62798;SDS011;48842;51.046;13.796;2023-03-23T15:09:47;2.50;;;1.80;;
62798;SDS011;48842;51.046;13.796;2023-03-23T15:12:18;2.90;;;2.17;;
62798;SDS011;48842;51.046;13.796;2023-03-23T15:14:49;4.63;;;1.60;;
62798;SDS011;48842;51.046;13.796;2023-03-23T15:17:23;5.53;;;4.00;;
62798;SDS011;48842;51.046;13.796;2023-03-23T15:19:50;2.40;;;1.77;;
62798;SDS011;48842;51.046;13.796;2023-03-23T15:22:28;1.33;;;1.23;;
62798;SDS011;48842;51.046;13.796;2023-03-23T15:27:48;1.20;;;1.10;;
62798;SDS011;48842;51.046;13.796;2023-03-23T15:32:53;1.47;;;1.10;;
62798;SDS011;48842;51.046;13.796;2023-03-23T15:35:22;1.00;;;1.00;;
62798;SDS011;48842;51.046;13.796;2023-03-23T15:37:53;4.83;;;1.30;;
62798;SDS011;48842;51.046;13.796;2023-03-23T15:40:24;2.60;;;0.87;;
62798;SDS011;48842;51.046;13.796;2023-03-23T15:43:05;1.03;;;0.80;;
62798;SDS011;48842;51.046;13.796;2023-03-23T15:45:50;2.40;;;1.20;;
62798;SDS011;48842;51.046;13.796;2023-03-23T15:48:20;1.00;;;1.00;;
62798;SDS011;48842;51.046;13.796;2023-03-23T15:50:46;1.40;;;1.03;;
62798;SDS011;48842;51.046;13.796;2023-03-23T15:53:25;0.97;;;0.97;;
62798;SDS011;48842;51.046;13.796;2023-03-23T15:55:53;1.23;;;1.00;;
62798;SDS011;48842;51.046;13.796;2023-03-23T15:58:19;2.00;;;1.07;;
62798;SDS011;48842;51.046;13.796;2023-03-23T16:00:44;1.73;;;0.87;;